Terminal Aerodrome Forecast
Issued by NWS Wilmington, OH

Current Version | Previous Version | Text Only | Print | Product List | Glossary Off
Versions: 1 2 3 4 5 6 7 8 9 10 11 12 13 14 15 16 17 18 19 20 21 22 23 24 25 26 27 28 29 30 31 32 33 34 35 36 37 38

697
FTUS41 KILN 230858 AAA
TAFCVG
TAF AMD
KCVG 230858Z 2309/2412 19011KT P6SM VCSH BKN015 OVC022
     FM231300 21012G18KT 5SM SHRA BR OVC015
      TEMPO 2318/2322 3SM +SHRA OVC010
     FM240000 25008KT P6SM OVC015
      TEMPO 2400/2402 4SM -SHRA BR OVC010
     FM240600 31007KT P6SM SKC=

USA.gov is the U.S. government's official web portal to all federal, state and local government web resources and services.